sensor_id;sensor_type;location;lat;lon;timestamp;temperature;humidity
7762;DHT22;3925;48.636;9.516;2023-02-28T00:01:23;-0.50;98.40
7762;DHT22;3925;48.636;9.516;2023-02-28T00:03:50;-0.20;98.90
7762;DHT22;3925;48.636;9.516;2023-02-28T00:06:17;-0.30;98.60
7762;DHT22;3925;48.636;9.516;2023-02-28T00:08:44;-0.30;98.90
7762;DHT22;3925;48.636;9.516;2023-02-28T00:11:13;-0.10;98.30
7762;DHT22;3925;48.636;9.516;2023-02-28T00:13:42;-0.30;98.10
7762;DHT22;3925;48.636;9.516;2023-02-28T00:16:15;-0.40;98.80
7762;DHT22;3925;48.636;9.516;2023-02-28T00:18:42;-0.10;98.90
7762;DHT22;3925;48.636;9.516;2023-02-28T00:21:09;-0.30;98.70
7762;DHT22;3925;48.636;9.516;2023-02-28T00:23:36;-0.40;99.10
7762;DHT22;3925;48.636;9.516;2023-02-28T00:26:05;-0.30;99.00
7762;DHT22;3925;48.636;9.516;2023-02-28T00:28:32;-0.40;99.40
7762;DHT22;3925;48.636;9.516;2023-02-28T00:30:59;-0.20;99.70
7762;DHT22;3925;48.636;9.516;2023-02-28T00:33:28;-0.10;99.30
7762;DHT22;3925;48.636;9.516;2023-02-28T00:36:02;0.00;99.30
7762;DHT22;3925;48.636;9.516;2023-02-28T00:38:30;-0.10;99.40
7762;DHT22;3925;48.636;9.516;2023-02-28T00:40:57;-0.40;99.90
7762;DHT22;3925;48.636;9.516;2023-02-28T00:43:30;-0.20;99.90
7762;DHT22;3925;48.636;9.516;2023-02-28T00:45:57;-0.30;99.90
7762;DHT22;3925;48.636;9.516;2023-02-28T00:48:24;-0.30;99.90
7762;DHT22;3925;48.636;9.516;2023-02-28T00:50:53;-0.20;99.90
7762;DHT22;3925;48.636;9.516;2023-02-28T00:53:20;-0.20;99.90
7762;DHT22;3925;48.636;9.516;2023-02-28T00:55:47;0.10;99.90
7762;DHT22;3925;48.636;9.516;2023-02-28T00:58:14;0.00;99.90
7762;DHT22;3925;48.636;9.516;2023-02-28T01:00:41;-0.10;99.90
7762;DHT22;3925;48.636;9.516;2023-02-28T01:03:08;-0.10;99.90
7762;DHT22;3925;48.636;9.516;2023-02-28T01:05:35;0.00;99.90
7762;DHT22;3925;48.636;9.516;2023-02-28T01:08:03;0.00;99.90
7762;DHT22;3925;48.636;9.516;2023-02-28T01:10:30;-0.20;99.90
7762;DHT22;3925;48.636;9.516;2023-02-28T01:12:57;-0.30;99.90
7762;DHT22;3925;48.636;9.516;2023-02-28T01:15:24;-0.20;99.90
7762;DHT22;3925;48.636;9.516;2023-02-28T01:17:51;-0.30;99.90
7762;DHT22;3925;48.636;9.516;2023-02-28T01:20:18;-0.10;99.90
7762;DHT22;3925;48.636;9.516;2023-02-28T01:22:45;-0.30;99.90
7762;DHT22;3925;48.636;9.516;2023-02-28T01:25:13;-0.30;99.90
7762;DHT22;3925;48.636;9.516;2023-02-28T01:27:40;-0.30;99.90
7762;DHT22;3925;48.636;9.516;2023-02-28T01:30:08;-0.50;99.90
7762;DHT22;3925;48.636;9.516;2023-02-28T01:32:36;-0.50;99.90
7762;DHT22;3925;48.636;9.516;2023-02-28T01:35:03;-0.50;99.90
7762;DHT22;3925;48.636;9.516;2023-02-28T01:37:30;-0.50;99.90
7762;DHT22;3925;48.636;9.516;2023-02-28T01:39:57;-0.50;99.90
7762;DHT22;3925;48.636;9.516;2023-02-28T01:42:25;-0.50;99.90
7762;DHT22;3925;48.636;9.516;2023-02-28T01:45:03;-0.40;99.90
7762;DHT22;3925;48.636;9.516;2023-02-28T01:47:32;-0.30;99.90
7762;DHT22;3925;48.636;9.516;2023-02-28T01:50:04;0.00;99.90
7762;DHT22;3925;48.636;9.516;2023-02-28T01:52:33;0.10;99.90
7762;DHT22;3925;48.636;9.516;2023-02-28T01:55:01;0.00;99.90
7762;DHT22;3925;48.636;9.516;2023-02-28T01:57:35;-0.20;99.90
7762;DHT22;3925;48.636;9.516;2023-02-28T02:00:08;0.00;99.90
7762;DHT22;3925;48.636;9.516;2023-02-28T02:02:36;-0.10;99.90
7762;DHT22;3925;48.636;9.516;2023-02-28T02:05:05;-0.30;99.90
7762;DHT22;3925;48.636;9.516;2023-02-28T02:07:36;-0.40;99.90
7762;DHT22;3925;48.636;9.516;2023-02-28T02:10:06;-0.60;99.90
7762;DHT22;3925;48.636;9.516;2023-02-28T02:13:00;-0.60;99.90
7762;DHT22;3925;48.636;9.516;2023-02-28T02:15:33;-0.60;99.90
7762;DHT22;3925;48.636;9.516;2023-02-28T02:18:06;-0.80;99.90
7762;DHT22;3925;48.636;9.516;2023-02-28T02:26:58;-0.80;99.90
7762;DHT22;3925;48.636;9.516;2023-02-28T02:30:12;-0.70;99.90
7762;DHT22;3925;48.636;9.516;2023-02-28T02:33:06;-0.70;99.90
7762;DHT22;3925;48.636;9.516;2023-02-28T02:35:42;-0.70;99.90
7762;DHT22;3925;48.636;9.516;2023-02-28T02:38:13;-0.70;99.90
7762;DHT22;3925;48.636;9.516;2023-02-28T02:40:49;-0.60;99.90
7762;DHT22;3925;48.636;9.516;2023-02-28T02:43:20;-0.60;99.90
7762;DHT22;3925;48.636;9.516;2023-02-28T02:45:53;-0.70;99.90
7762;DHT22;3925;48.636;9.516;2023-02-28T02:48:25;-0.60;99.90
7762;DHT22;3925;48.636;9.516;2023-02-28T02:50:57;-0.70;99.90
7762;DHT22;3925;48.636;9.516;2023-02-28T02:53:30;-0.70;99.90
7762;DHT22;3925;48.636;9.516;2023-02-28T02:56:00;-0.60;99.90
7762;DHT22;3925;48.636;9.516;2023-02-28T02:58:32;-0.70;99.90
7762;DHT22;3925;48.636;9.516;2023-02-28T03:01:02;-0.80;99.90
7762;DHT22;3925;48.636;9.516;2023-02-28T03:03:31;-0.80;99.90
7762;DHT22;3925;48.636;9.516;2023-02-28T03:06:01;-0.90;99.90
7762;DHT22;3925;48.636;9.516;2023-02-28T03:08:29;-0.90;99.90
7762;DHT22;3925;48.636;9.516;2023-02-28T03:11:03;-0.90;99.90
7762;DHT22;3925;48.636;9.516;2023-02-28T03:13:46;-0.80;99.90
7762;DHT22;3925;48.636;9.516;2023-02-28T03:16:34;-0.60;99.90
7762;DHT22;3925;48.636;9.516;2023-02-28T03:19:13;-0.50;99.90
7762;DHT22;3925;48.636;9.516;2023-02-28T03:21:49;-0.60;99.90
7762;DHT22;3925;48.636;9.516;2023-02-28T03:24:26;-0.40;99.90
7762;DHT22;3925;48.636;9.516;2023-02-28T03:27:01;-0.40;99.90
7762;DHT22;3925;48.636;9.516;2023-02-28T03:29:34;-0.40;99.90
7762;DHT22;3925;48.636;9.516;2023-02-28T03:32:05;-0.50;99.90
7762;DHT22;3925;48.636;9.516;2023-02-28T03:34:41;-0.50;99.90
7762;DHT22;3925;48.636;9.516;2023-02-28T03:37:16;-0.50;99.90
7762;DHT22;3925;48.636;9.516;2023-02-28T03:39:47;-0.40;99.90
7762;DHT22;3925;48.636;9.516;2023-02-28T03:42:19;-0.50;99.90
7762;DHT22;3925;48.636;9.516;2023-02-28T03:44:49;-0.70;99.90
7762;DHT22;3925;48.636;9.516;2023-02-28T03:47:22;-0.70;99.90
7762;DHT22;3925;48.636;9.516;2023-02-28T03:49:54;-0.60;99.90
7762;DHT22;3925;48.636;9.516;2023-02-28T03:52:29;-0.70;99.90
7762;DHT22;3925;48.636;9.516;2023-02-28T03:55:00;-0.70;99.90
7762;DHT22;3925;48.636;9.516;2023-02-28T03:57:35;-0.60;99.90
7762;DHT22;3925;48.636;9.516;2023-02-28T04:00:06;-0.60;99.90
7762;DHT22;3925;48.636;9.516;2023-02-28T04:02:34;-0.50;99.90
7762;DHT22;3925;48.636;9.516;2023-02-28T04:05:01;-0.50;99.90
7762;DHT22;3925;48.636;9.516;2023-02-28T04:07:31;-0.50;99.90
7762;DHT22;3925;48.636;9.516;2023-02-28T04:09:58;-0.50;99.90
7762;DHT22;3925;48.636;9.516;2023-02-28T04:12:25;-0.50;99.90
7762;DHT22;3925;48.636;9.516;2023-02-28T04:14:52;-0.40;99.90
7762;DHT22;3925;48.636;9.516;2023-02-28T04:17:19;-0.20;99.90
7762;DHT22;3925;48.636;9.516;2023-02-28T04:19:47;-0.20;99.90
7762;DHT22;3925;48.636;9.516;2023-02-28T04:22:13;-0.30;99.90
7762;DHT22;3925;48.636;9.516;2023-02-28T04:24:44;-0.30;99.90
7762;DHT22;3925;48.636;9.516;2023-02-28T04:27:10;-0.40;99.90
7762;DHT22;3925;48.636;9.516;2023-02-28T04:29:37;-0.50;99.90
7762;DHT22;3925;48.636;9.516;2023-02-28T04:32:05;-0.40;99.90
7762;DHT22;3925;48.636;9.516;2023-02-28T04:34:32;-0.40;99.90
7762;DHT22;3925;48.636;9.516;2023-02-28T04:36:59;-0.30;99.90
7762;DHT22;3925;48.636;9.516;2023-02-28T04:39:26;-0.40;99.90
7762;DHT22;3925;48.636;9.516;2023-02-28T04:41:54;-0.40;99.90
7762;DHT22;3925;48.636;9.516;2023-02-28T04:44:21;-0.40;99.90
7762;DHT22;3925;48.636;9.516;2023-02-28T04:46:49;-0.50;99.90
7762;DHT22;3925;48.636;9.516;2023-02-28T04:49:15;-0.30;99.90
7762;DHT22;3925;48.636;9.516;2023-02-28T04:51:42;-0.10;99.90
7762;DHT22;3925;48.636;9.516;2023-02-28T04:54:09;-0.20;99.90
7762;DHT22;3925;48.636;9.516;2023-02-28T04:56:36;-0.10;99.90
7762;DHT22;3925;48.636;9.516;2023-02-28T04:59:04;-0.20;99.90
7762;DHT22;3925;48.636;9.516;2023-02-28T05:01:33;-0.10;99.90
7762;DHT22;3925;48.636;9.516;2023-02-28T05:04:01;-0.10;99.90
7762;DHT22;3925;48.636;9.516;2023-02-28T05:06:30;-0.10;99.90
7762;DHT22;3925;48.636;9.516;2023-02-28T05:08:58;-0.20;99.90
7762;DHT22;3925;48.636;9.516;2023-02-28T05:11:28;-0.20;99.90
7762;DHT22;3925;48.636;9.516;2023-02-28T05:13:59;-0.20;99.90
7762;DHT22;3925;48.636;9.516;2023-02-28T05:16:27;-0.20;99.90
7762;DHT22;3925;48.636;9.516;2023-02-28T05:18:54;-0.20;99.90
7762;DHT22;3925;48.636;9.516;2023-02-28T05:21:27;-0.20;99.90
7762;DHT22;3925;48.636;9.516;2023-02-28T05:23:56;-0.20;99.90
7762;DHT22;3925;48.636;9.516;2023-02-28T05:26:24;-0.20;99.90
7762;DHT22;3925;48.636;9.516;2023-02-28T05:28:51;-0.20;99.90
7762;DHT22;3925;48.636;9.516;2023-02-28T05:31:19;-0.30;99.90
7762;DHT22;3925;48.636;9.516;2023-02-28T05:33:47;-0.20;99.90
7762;DHT22;3925;48.636;9.516;2023-02-28T05:36:14;-0.20;99.90
7762;DHT22;3925;48.636;9.516;2023-02-28T05:38:41;-0.30;99.90
7762;DHT22;3925;48.636;9.516;2023-02-28T05:41:09;0.00;99.90
7762;DHT22;3925;48.636;9.516;2023-02-28T05:43:36;-0.10;99.90
7762;DHT22;3925;48.636;9.516;2023-02-28T05:46:04;0.00;99.90
7762;DHT22;3925;48.636;9.516;2023-02-28T05:48:32;0.00;99.90
7762;DHT22;3925;48.636;9.516;2023-02-28T05:51:01;-0.10;99.90
7762;DHT22;3925;48.636;9.516;2023-02-28T05:53:28;0.00;99.90
7762;DHT22;3925;48.636;9.516;2023-02-28T05:55:55;0.00;99.90
7762;DHT22;3925;48.636;9.516;2023-02-28T05:58:22;0.00;99.90
7762;DHT22;3925;48.636;9.516;2023-02-28T06:00:49;0.00;99.90
7762;DHT22;3925;48.636;9.516;2023-02-28T06:03:16;0.10;99.90
7762;DHT22;3925;48.636;9.516;2023-02-28T06:05:43;0.00;99.90
7762;DHT22;3925;48.636;9.516;2023-02-28T06:08:11;-0.10;99.90
7762;DHT22;3925;48.636;9.516;2023-02-28T06:10:38;-0.10;99.90
7762;DHT22;3925;48.636;9.516;2023-02-28T06:13:05;-0.20;99.90
7762;DHT22;3925;48.636;9.516;2023-02-28T06:15:32;-0.20;99.90
7762;DHT22;3925;48.636;9.516;2023-02-28T06:17:59;-0.10;99.90
7762;DHT22;3925;48.636;9.516;2023-02-28T06:20:27;-0.20;99.90
7762;DHT22;3925;48.636;9.516;2023-02-28T06:22:55;-0.20;99.90
7762;DHT22;3925;48.636;9.516;2023-02-28T06:25:26;-0.20;99.90
7762;DHT22;3925;48.636;9.516;2023-02-28T06:27:54;-0.20;99.90
7762;DHT22;3925;48.636;9.516;2023-02-28T06:30:21;-0.10;99.90
7762;DHT22;3925;48.636;9.516;2023-02-28T06:32:50;-0.10;99.90
7762;DHT22;3925;48.636;9.516;2023-02-28T06:35:17;-0.10;99.90
7762;DHT22;3925;48.636;9.516;2023-02-28T06:37:44;0.00;99.90
7762;DHT22;3925;48.636;9.516;2023-02-28T06:40:13;-0.10;99.90
7762;DHT22;3925;48.636;9.516;2023-02-28T06:42:41;0.00;99.90
7762;DHT22;3925;48.636;9.516;2023-02-28T06:45:09;0.10;99.90
7762;DHT22;3925;48.636;9.516;2023-02-28T06:47:37;0.10;99.90
7762;DHT22;3925;48.636;9.516;2023-02-28T06:50:05;0.10;99.90
7762;DHT22;3925;48.636;9.516;2023-02-28T06:52:33;0.10;99.90
7762;DHT22;3925;48.636;9.516;2023-02-28T06:55:02;0.20;99.90
7762;DHT22;3925;48.636;9.516;2023-02-28T06:57:29;0.10;99.90
7762;DHT22;3925;48.636;9.516;2023-02-28T06:59:59;0.00;99.90
7762;DHT22;3925;48.636;9.516;2023-02-28T07:02:26;0.20;99.90
7762;DHT22;3925;48.636;9.516;2023-02-28T07:04:53;0.30;99.90
7762;DHT22;3925;48.636;9.516;2023-02-28T07:07:20;0.30;99.90
7762;DHT22;3925;48.636;9.516;2023-02-28T07:09:47;0.30;99.90
7762;DHT22;3925;48.636;9.516;2023-02-28T07:12:14;0.20;99.90
7762;DHT22;3925;48.636;9.516;2023-02-28T07:14:41;0.20;99.90
7762;DHT22;3925;48.636;9.516;2023-02-28T07:17:10;0.20;99.90
7762;DHT22;3925;48.636;9.516;2023-02-28T07:19:38;0.30;99.90
7762;DHT22;3925;48.636;9.516;2023-02-28T07:22:05;0.50;99.90
7762;DHT22;3925;48.636;9.516;2023-02-28T07:24:31;0.40;99.90
7762;DHT22;3925;48.636;9.516;2023-02-28T07:26:58;0.30;99.90
7762;DHT22;3925;48.636;9.516;2023-02-28T07:29:26;0.50;99.90
7762;DHT22;3925;48.636;9.516;2023-02-28T07:31:53;0.50;99.90
7762;DHT22;3925;48.636;9.516;2023-02-28T07:34:21;0.50;99.90
7762;DHT22;3925;48.636;9.516;2023-02-28T07:36:48;0.50;99.90
7762;DHT22;3925;48.636;9.516;2023-02-28T07:39:19;0.60;99.90
7762;DHT22;3925;48.636;9.516;2023-02-28T07:41:46;0.70;99.90
7762;DHT22;3925;48.636;9.516;2023-02-28T07:44:13;0.80;99.90
7762;DHT22;3925;48.636;9.516;2023-02-28T07:46:40;0.70;99.90
7762;DHT22;3925;48.636;9.516;2023-02-28T07:49:07;0.60;99.90
7762;DHT22;3925;48.636;9.516;2023-02-28T07:51:35;0.70;99.90
7762;DHT22;3925;48.636;9.516;2023-02-28T07:54:02;0.60;99.90
7762;DHT22;3925;48.636;9.516;2023-02-28T07:56:29;0.50;99.90
7762;DHT22;3925;48.636;9.516;2023-02-28T07:58:57;0.50;99.90
7762;DHT22;3925;48.636;9.516;2023-02-28T08:01:25;0.50;99.90
7762;DHT22;3925;48.636;9.516;2023-02-28T08:03:51;0.60;99.90
7762;DHT22;3925;48.636;9.516;2023-02-28T08:06:22;0.70;99.90
7762;DHT22;3925;48.636;9.516;2023-02-28T08:08:50;0.70;99.90
7762;DHT22;3925;48.636;9.516;2023-02-28T08:11:17;0.70;99.90
7762;DHT22;3925;48.636;9.516;2023-02-28T08:13:45;0.80;99.90
7762;DHT22;3925;48.636;9.516;2023-02-28T08:16:13;0.90;99.90
7762;DHT22;3925;48.636;9.516;2023-02-28T08:18:42;0.90;99.90
7762;DHT22;3925;48.636;9.516;2023-02-28T08:21:11;1.00;99.90
7762;DHT22;3925;48.636;9.516;2023-02-28T08:23:38;1.00;99.90
7762;DHT22;3925;48.636;9.516;2023-02-28T08:26:06;0.90;99.90
7762;DHT22;3925;48.636;9.516;2023-02-28T08:28:33;1.00;99.90
7762;DHT22;3925;48.636;9.516;2023-02-28T08:31:01;1.10;99.90
7762;DHT22;3925;48.636;9.516;2023-02-28T08:33:33;1.10;99.90
7762;DHT22;3925;48.636;9.516;2023-02-28T08:36:00;0.90;99.90
7762;DHT22;3925;48.636;9.516;2023-02-28T08:38:27;0.90;99.90
7762;DHT22;3925;48.636;9.516;2023-02-28T08:40:58;0.90;99.90
7762;DHT22;3925;48.636;9.516;2023-02-28T08:43:26;1.00;99.90
7762;DHT22;3925;48.636;9.516;2023-02-28T08:45:53;1.20;99.90
7762;DHT22;3925;48.636;9.516;2023-02-28T08:48:22;0.90;99.90
7762;DHT22;3925;48.636;9.516;2023-02-28T08:50:56;1.00;99.90
7762;DHT22;3925;48.636;9.516;2023-02-28T08:53:23;0.80;99.90
7762;DHT22;3925;48.636;9.516;2023-02-28T08:55:56;0.80;99.90
7762;DHT22;3925;48.636;9.516;2023-02-28T08:58:23;0.90;99.90
7762;DHT22;3925;48.636;9.516;2023-02-28T09:00:52;1.10;99.90
7762;DHT22;3925;48.636;9.516;2023-02-28T09:03:19;1.10;99.90
7762;DHT22;3925;48.636;9.516;2023-02-28T09:05:53;1.10;99.90
7762;DHT22;3925;48.636;9.516;2023-02-28T09:08:20;1.40;99.90
7762;DHT22;3925;48.636;9.516;2023-02-28T09:10:47;1.30;99.90
7762;DHT22;3925;48.636;9.516;2023-02-28T09:13:13;1.20;99.90
7762;DHT22;3925;48.636;9.516;2023-02-28T09:15:40;1.10;99.90
7762;DHT22;3925;48.636;9.516;2023-02-28T09:18:09;1.10;99.90
7762;DHT22;3925;48.636;9.516;2023-02-28T09:20:38;1.30;99.90
7762;DHT22;3925;48.636;9.516;2023-02-28T09:23:06;1.40;99.90
7762;DHT22;3925;48.636;9.516;2023-02-28T09:25:33;1.40;99.90
7762;DHT22;3925;48.636;9.516;2023-02-28T09:28:00;1.50;99.90
7762;DHT22;3925;48.636;9.516;2023-02-28T09:30:27;1.50;99.90
7762;DHT22;3925;48.636;9.516;2023-02-28T09:32:54;1.60;99.90
7762;DHT22;3925;48.636;9.516;2023-02-28T09:35:23;1.70;99.90
7762;DHT22;3925;48.636;9.516;2023-02-28T09:37:52;1.90;99.90
7762;DHT22;3925;48.636;9.516;2023-02-28T09:40:21;2.00;99.90
7762;DHT22;3925;48.636;9.516;2023-02-28T09:42:51;2.20;99.90
7762;DHT22;3925;48.636;9.516;2023-02-28T09:45:23;2.00;99.90
7762;DHT22;3925;48.636;9.516;2023-02-28T09:47:53;1.90;99.90
7762;DHT22;3925;48.636;9.516;2023-02-28T09:50:30;1.80;99.90
7762;DHT22;3925;48.636;9.516;2023-02-28T09:52:59;1.70;99.90
7762;DHT22;3925;48.636;9.516;2023-02-28T09:55:31;1.90;99.90
7762;DHT22;3925;48.636;9.516;2023-02-28T09:58:00;2.00;99.90
7762;DHT22;3925;48.636;9.516;2023-02-28T10:00:32;2.00;99.90
7762;DHT22;3925;48.636;9.516;2023-02-28T10:03:24;1.90;99.90
7762;DHT22;3925;48.636;9.516;2023-02-28T10:05:58;2.00;99.90
7762;DHT22;3925;48.636;9.516;2023-02-28T10:08:31;2.10;99.90
7762;DHT22;3925;48.636;9.516;2023-02-28T10:11:01;2.00;99.90
7762;DHT22;3925;48.636;9.516;2023-02-28T10:13:34;2.10;99.90
7762;DHT22;3925;48.636;9.516;2023-02-28T10:16:06;2.20;99.70
7762;DHT22;3925;48.636;9.516;2023-02-28T10:18:41;2.30;99.80
7762;DHT22;3925;48.636;9.516;2023-02-28T10:21:18;2.30;99.60
7762;DHT22;3925;48.636;9.516;2023-02-28T10:23:46;2.50;99.50
7762;DHT22;3925;48.636;9.516;2023-02-28T10:26:17;2.70;99.30
7762;DHT22;3925;48.636;9.516;2023-02-28T10:28:44;2.70;98.90
7762;DHT22;3925;48.636;9.516;2023-02-28T10:31:14;2.70;98.90
7762;DHT22;3925;48.636;9.516;2023-02-28T10:33:42;3.10;99.60
7762;DHT22;3925;48.636;9.516;2023-02-28T10:36:14;3.20;98.60
7762;DHT22;3925;48.636;9.516;2023-02-28T10:38:43;3.40;97.90
7762;DHT22;3925;48.636;9.516;2023-02-28T10:41:13;3.30;97.70
7762;DHT22;3925;48.636;9.516;2023-02-28T10:43:42;3.40;98.00
7762;DHT22;3925;48.636;9.516;2023-02-28T10:46:13;3.70;98.00
7762;DHT22;3925;48.636;9.516;2023-02-28T10:49:01;4.00;97.40
7762;DHT22;3925;48.636;9.516;2023-02-28T10:51:36;4.40;96.50
7762;DHT22;3925;48.636;9.516;2023-02-28T10:54:04;5.40;95.50
7762;DHT22;3925;48.636;9.516;2023-02-28T10:56:32;5.60;94.00
7762;DHT22;3925;48.636;9.516;2023-02-28T10:59:00;5.60;93.80
7762;DHT22;3925;48.636;9.516;2023-02-28T11:01:39;5.90;93.50
7762;DHT22;3925;48.636;9.516;2023-02-28T11:04:34;5.70;92.80
7762;DHT22;3925;48.636;9.516;2023-02-28T11:07:06;5.80;92.10
7762;DHT22;3925;48.636;9.516;2023-02-28T11:09:34;5.70;92.50
7762;DHT22;3925;48.636;9.516;2023-02-28T11:12:03;5.80;92.10
7762;DHT22;3925;48.636;9.516;2023-02-28T11:14:33;5.80;92.00
7762;DHT22;3925;48.636;9.516;2023-02-28T11:17:13;5.50;92.70
7762;DHT22;3925;48.636;9.516;2023-02-28T11:19:45;5.70;92.20
7762;DHT22;3925;48.636;9.516;2023-02-28T11:22:19;5.60;91.80
7762;DHT22;3925;48.636;9.516;2023-02-28T11:24:50;5.60;92.20
7762;DHT22;3925;48.636;9.516;2023-02-28T11:27:47;5.40;92.00
7762;DHT22;3925;48.636;9.516;2023-02-28T11:30:26;5.60;92.20
7762;DHT22;3925;48.636;9.516;2023-02-28T11:32:53;5.80;92.10
7762;DHT22;3925;48.636;9.516;2023-02-28T11:35:24;6.60;91.30
7762;DHT22;3925;48.636;9.516;2023-02-28T11:37:53;8.00;90.00
7762;DHT22;3925;48.636;9.516;2023-02-28T11:40:28;9.50;84.80
7762;DHT22;3925;48.636;9.516;2023-02-28T11:43:04;10.20;76.40
7762;DHT22;3925;48.636;9.516;2023-02-28T11:45:53;10.40;73.00
7762;DHT22;3925;48.636;9.516;2023-02-28T11:48:27;11.10;72.80
7762;DHT22;3925;48.636;9.516;2023-02-28T11:51:01;12.60;66.50
7762;DHT22;3925;48.636;9.516;2023-02-28T11:53:42;12.40;61.40
7762;DHT22;3925;48.636;9.516;2023-02-28T11:56:15;12.90;60.70
7762;DHT22;3925;48.636;9.516;2023-02-28T11:58:52;12.00;59.40
7762;DHT22;3925;48.636;9.516;2023-02-28T12:01:30;11.90;59.90
7762;DHT22;3925;48.636;9.516;2023-02-28T12:04:08;11.90;60.30
7762;DHT22;3925;48.636;9.516;2023-02-28T12:06:43;11.80;59.70
7762;DHT22;3925;48.636;9.516;2023-02-28T12:09:28;11.10;59.00
7762;DHT22;3925;48.636;9.516;2023-02-28T12:12:04;10.20;61.10
7762;DHT22;3925;48.636;9.516;2023-02-28T12:14:54;10.30;63.20
7762;DHT22;3925;48.636;9.516;2023-02-28T12:17:36;9.70;64.70
7762;DHT22;3925;48.636;9.516;2023-02-28T12:20:14;9.70;69.10
7762;DHT22;3925;48.636;9.516;2023-02-28T12:22:52;9.20;68.80
7762;DHT22;3925;48.636;9.516;2023-02-28T12:25:47;9.10;68.20
7762;DHT22;3925;48.636;9.516;2023-02-28T12:28:21;9.20;71.80
7762;DHT22;3925;48.636;9.516;2023-02-28T12:30:54;8.40;70.00
7762;DHT22;3925;48.636;9.516;2023-02-28T12:33:27;8.30;73.20
7762;DHT22;3925;48.636;9.516;2023-02-28T12:35:58;8.10;72.60
7762;DHT22;3925;48.636;9.516;2023-02-28T12:38:28;8.00;72.90
7762;DHT22;3925;48.636;9.516;2023-02-28T12:41:00;7.60;74.00
7762;DHT22;3925;48.636;9.516;2023-02-28T12:43:33;7.60;75.80
7762;DHT22;3925;48.636;9.516;2023-02-28T12:46:08;7.50;75.00
7762;DHT22;3925;48.636;9.516;2023-02-28T12:48:40;7.30;75.50
7762;DHT22;3925;48.636;9.516;2023-02-28T12:51:08;7.30;78.40
7762;DHT22;3925;48.636;9.516;2023-02-28T12:53:49;7.20;76.30
7762;DHT22;3925;48.636;9.516;2023-02-28T12:56:26;7.20;77.20
7762;DHT22;3925;48.636;9.516;2023-02-28T12:58:59;7.10;77.50
7762;DHT22;3925;48.636;9.516;2023-02-28T13:01:49;7.20;77.10
7762;DHT22;3925;48.636;9.516;2023-02-28T13:04:42;7.00;76.20
7762;DHT22;3925;48.636;9.516;2023-02-28T13:07:34;6.90;78.10
7762;DHT22;3925;48.636;9.516;2023-02-28T13:10:05;6.90;80.50
7762;DHT22;3925;48.636;9.516;2023-02-28T13:12:35;6.70;78.70
7762;DHT22;3925;48.636;9.516;2023-02-28T13:15:06;6.70;79.50
7762;DHT22;3925;48.636;9.516;2023-02-28T13:17:39;6.50;78.70
7762;DHT22;3925;48.636;9.516;2023-02-28T13:20:15;6.50;79.50
7762;DHT22;3925;48.636;9.516;2023-02-28T13:22:45;6.60;80.10
7762;DHT22;3925;48.636;9.516;2023-02-28T13:35:11;6.70;79.80
7762;DHT22;3925;48.636;9.516;2023-02-28T13:37:42;6.70;79.90
7762;DHT22;3925;48.636;9.516;2023-02-28T13:40:30;6.80;81.80
7762;DHT22;3925;48.636;9.516;2023-02-28T13:43:02;6.90;81.40
7762;DHT22;3925;48.636;9.516;2023-02-28T13:45:30;6.90;80.40
7762;DHT22;3925;48.636;9.516;2023-02-28T13:48:04;7.00;81.30
7762;DHT22;3925;48.636;9.516;2023-02-28T13:50:42;7.10;80.50
7762;DHT22;3925;48.636;9.516;2023-02-28T13:53:48;6.90;80.70
7762;DHT22;3925;48.636;9.516;2023-02-28T13:56:40;6.80;81.30
7762;DHT22;3925;48.636;9.516;2023-02-28T13:59:19;6.70;80.00
7762;DHT22;3925;48.636;9.516;2023-02-28T14:02:09;6.60;80.60
7762;DHT22;3925;48.636;9.516;2023-02-28T14:05:05;6.70;80.50
7762;DHT22;3925;48.636;9.516;2023-02-28T14:07:40;6.60;80.50
7762;DHT22;3925;48.636;9.516;2023-02-28T14:10:22;6.50;80.60
7762;DHT22;3925;48.636;9.516;2023-02-28T14:13:00;6.50;80.80
7762;DHT22;3925;48.636;9.516;2023-02-28T14:15:36;6.40;80.50
7762;DHT22;3925;48.636;9.516;2023-02-28T14:18:11;6.40;80.50
7762;DHT22;3925;48.636;9.516;2023-02-28T14:20:41;6.40;81.30
7762;DHT22;3925;48.636;9.516;2023-02-28T14:23:17;6.60;80.00
7762;DHT22;3925;48.636;9.516;2023-02-28T14:25:55;6.50;82.10
7762;DHT22;3925;48.636;9.516;2023-02-28T14:28:43;6.40;80.60
7762;DHT22;3925;48.636;9.516;2023-02-28T14:31:13;6.40;80.20
7762;DHT22;3925;48.636;9.516;2023-02-28T14:34:00;6.40;80.20
7762;DHT22;3925;48.636;9.516;2023-02-28T14:36:32;6.40;81.70
7762;DHT22;3925;48.636;9.516;2023-02-28T14:39:05;6.50;80.90
7762;DHT22;3925;48.636;9.516;2023-02-28T14:41:35;6.60;81.70
7762;DHT22;3925;48.636;9.516;2023-02-28T14:44:14;6.50;79.80
7762;DHT22;3925;48.636;9.516;2023-02-28T14:46:42;6.60;80.80
7762;DHT22;3925;48.636;9.516;2023-02-28T14:49:16;6.60;80.40
7762;DHT22;3925;48.636;9.516;2023-02-28T14:51:43;6.50;79.60
7762;DHT22;3925;48.636;9.516;2023-02-28T14:54:16;6.40;79.80
7762;DHT22;3925;48.636;9.516;2023-02-28T14:56:43;6.40;81.30
7762;DHT22;3925;48.636;9.516;2023-02-28T14:59:28;6.40;82.70
7762;DHT22;3925;48.636;9.516;2023-02-28T15:02:16;6.40;83.10
7762;DHT22;3925;48.636;9.516;2023-02-28T15:04:52;6.70;82.30
7762;DHT22;3925;48.636;9.516;2023-02-28T15:07:19;6.60;81.10
7762;DHT22;3925;48.636;9.516;2023-02-28T15:10:13;6.60;81.70
7762;DHT22;3925;48.636;9.516;2023-02-28T15:12:45;6.60;82.40
7762;DHT22;3925;48.636;9.516;2023-02-28T15:15:16;6.60;81.40
7762;DHT22;3925;48.636;9.516;2023-02-28T15:17:46;6.40;80.10
7762;DHT22;3925;48.636;9.516;2023-02-28T15:20:14;6.50;81.20
7762;DHT22;3925;48.636;9.516;2023-02-28T15:22:41;6.50;82.30
7762;DHT22;3925;48.636;9.516;2023-02-28T15:25:14;6.30;81.10
7762;DHT22;3925;48.636;9.516;2023-02-28T15:27:45;6.10;82.40
7762;DHT22;3925;48.636;9.516;2023-02-28T15:30:17;6.10;82.80
7762;DHT22;3925;48.636;9.516;2023-02-28T15:32:45;6.10;83.50
7762;DHT22;3925;48.636;9.516;2023-02-28T15:35:30;6.10;82.60
7762;DHT22;3925;48.636;9.516;2023-02-28T15:38:00;6.10;82.80
7762;DHT22;3925;48.636;9.516;2023-02-28T15:40:31;5.90;83.70
7762;DHT22;3925;48.636;9.516;2023-02-28T15:43:03;5.80;84.30
7762;DHT22;3925;48.636;9.516;2023-02-28T15:45:35;5.90;84.40
7762;DHT22;3925;48.636;9.516;2023-02-28T15:48:04;5.90;84.00
7762;DHT22;3925;48.636;9.516;2023-02-28T15:50:31;5.80;84.10
7762;DHT22;3925;48.636;9.516;2023-02-28T15:53:00;5.80;84.40
7762;DHT22;3925;48.636;9.516;2023-02-28T15:55:30;5.80;84.50
7762;DHT22;3925;48.636;9.516;2023-02-28T15:58:00;5.70;84.00
7762;DHT22;3925;48.636;9.516;2023-02-28T16:00:29;5.70;85.60
7762;DHT22;3925;48.636;9.516;2023-02-28T16:02:58;5.70;86.60
7762;DHT22;3925;48.636;9.516;2023-02-28T16:05:26;5.70;87.30
7762;DHT22;3925;48.636;9.516;2023-02-28T16:07:59;5.50;88.30
7762;DHT22;3925;48.636;9.516;2023-02-28T16:10:27;5.50;87.80
7762;DHT22;3925;48.636;9.516;2023-02-28T16:12:56;5.40;87.70
7762;DHT22;3925;48.636;9.516;2023-02-28T16:15:25;5.30;87.80
7762;DHT22;3925;48.636;9.516;2023-02-28T16:17:53;5.30;87.90
7762;DHT22;3925;48.636;9.516;2023-02-28T16:20:21;5.30;88.10
7762;DHT22;3925;48.636;9.516;2023-02-28T16:22:48;5.20;88.00
7762;DHT22;3925;48.636;9.516;2023-02-28T16:25:16;5.10;88.90
7762;DHT22;3925;48.636;9.516;2023-02-28T16:27:46;5.00;90.20
7762;DHT22;3925;48.636;9.516;2023-02-28T16:30:20;4.90;90.40
7762;DHT22;3925;48.636;9.516;2023-02-28T16:32:47;4.80;90.80
7762;DHT22;3925;48.636;9.516;2023-02-28T16:35:15;4.70;90.90
7762;DHT22;3925;48.636;9.516;2023-02-28T16:37:43;4.70;91.20
7762;DHT22;3925;48.636;9.516;2023-02-28T16:40:14;4.60;91.10
7762;DHT22;3925;48.636;9.516;2023-02-28T16:42:42;4.50;91.50
7762;DHT22;3925;48.636;9.516;2023-02-28T16:45:19;4.50;92.00
7762;DHT22;3925;48.636;9.516;2023-02-28T16:47:47;4.40;91.90
7762;DHT22;3925;48.636;9.516;2023-02-28T16:50:16;4.30;91.90
7762;DHT22;3925;48.636;9.516;2023-02-28T16:52:43;4.20;92.10
7762;DHT22;3925;48.636;9.516;2023-02-28T16:55:10;4.10;92.40